Time;durP1;ratioP1;P1;durP2;ratioP2;P2;SDS_P1;SDS_P2;PMS_P1;PMS_P2;Temp;Humidity;BMP_temperature;BMP_pressure;BME280_temperature;BME280_humidity;BME280_pressure;Samples;Min_cycle;Max_cycle;Signal;HPM_P1;HPM_P2
2022/05/19 00:01:28;;;;;;;3.73;2.00;;;11.80;64.40;;;;;;5030025;28;20187;-67
2022/05/19 00:03:55;;;;;;;2.40;2.13;;;11.80;65.10;;;;;;5032605;28;20188;-66
2022/05/19 00:06:20;;;;;;;2.87;1.63;;;11.80;65.10;;;;;;5015192;28;20192;-67
2022/05/19 00:08:46;;;;;;;2.13;1.93;;;11.70;65.30;;;;;;5043478;28;20199;-66
2022/05/19 00:11:15;;;;;;;3.37;1.60;;;11.70;65.30;;;;;;5056655;28;20290;-66
2022/05/19 00:13:42;;;;;;;2.27;1.70;;;11.60;65.50;;;;;;5063453;28;20229;-66
2022/05/19 00:16:08;;;;;;;1.63;1.53;;;11.60;65.70;;;;;;5046618;28;20188;-66
2022/05/19 00:18:36;;;;;;;4.40;1.60;;;11.60;65.60;;;;;;5013840;28;20195;-66
2022/05/19 00:21:03;;;;;;;2.27;1.50;;;11.50;65.90;;;;;;5029897;28;20187;-66
2022/05/19 00:23:29;;;;;;;2.10;1.70;;;11.50;66.10;;;;;;5064348;28;20278;-66
2022/05/19 00:25:55;;;;;;;4.93;1.73;;;11.50;66.10;;;;;;5063776;28;20278;-66
2022/05/19 00:28:21;;;;;;;3.47;2.00;;;11.50;66.60;;;;;;5013982;28;20286;-66
2022/05/19 00:30:46;;;;;;;5.53;1.83;;;11.50;67.00;;;;;;5013824;28;20207;-66
2022/05/19 00:33:12;;;;;;;1.60;1.50;;;11.40;67.20;;;;;;5048048;28;20207;-66
2022/05/19 00:35:39;;;;;;;1.90;1.70;;;11.30;67.10;;;;;;5048338;28;20221;-66
2022/05/19 00:38:06;;;;;;;2.37;1.60;;;11.30;67.30;;;;;;5029248;28;20237;-66
2022/05/19 00:40:32;;;;;;;1.77;1.37;;;11.30;67.20;;;;;;5021452;28;20273;-66
2022/05/19 00:42:58;;;;;;;2.00;1.80;;;11.30;67.20;;;;;;5029668;28;20191;-65
2022/05/19 00:45:33;;;;;;;3.20;1.60;;;11.30;67.20;;;;;;5018371;28;20179;-65
2022/05/19 00:48:09;;;;;;;3.83;2.23;;;11.20;67.30;;;;;;5029763;28;20183;-65
2022/05/19 00:50:40;;;;;;;4.17;1.70;;;11.20;67.50;;;;;;5046698;28;20221;-65
2022/05/19 00:53:11;;;;;;;3.57;1.60;;;11.10;67.60;;;;;;5051183;28;20187;-65
2022/05/19 00:55:43;;;;;;;2.87;1.73;;;11.10;67.80;;;;;;5033119;28;20191;-66
2022/05/19 00:58:27;;;;;;;2.47;1.67;;;11.00;68.10;;;;;;5033188;28;20191;-66
2022/05/19 01:00:54;;;;;;;2.03;1.60;;;11.00;68.10;;;;;;5033134;28;20262;-66
2022/05/19 01:03:22;;;;;;;3.33;1.80;;;11.00;68.00;;;;;;5032923;28;20214;-66
2022/05/19 01:05:59;;;;;;;2.20;1.50;;;11.00;68.30;;;;;;5033654;28;20182;-66
2022/05/19 01:08:34;;;;;;;2.10;1.77;;;11.00;69.00;;;;;;5013181;28;20233;-66
2022/05/19 01:11:01;;;;;;;3.57;1.40;;;10.90;68.60;;;;;;5013131;28;20207;-66
2022/05/19 01:13:30;;;;;;;3.47;1.73;;;10.90;68.70;;;;;;5051102;28;20261;-66
2022/05/19 01:15:58;;;;;;;1.70;1.57;;;10.90;68.80;;;;;;5034059;28;20167;-66
2022/05/19 01:18:26;;;;;;;3.73;1.30;;;10.80;69.00;;;;;;5032244;28;20237;-66
2022/05/19 01:20:53;;;;;;;2.20;1.50;;;10.90;69.10;;;;;;5032946;28;20278;-66
2022/05/19 01:23:43;;;;;;;2.93;1.67;;;10.80;69.30;;;;;;5015343;28;20210;-65
2022/05/19 01:26:27;;;;;;;2.03;1.87;;;10.80;69.30;;;;;;5056564;28;20182;-65
2022/05/19 01:28:59;;;;;;;2.13;1.70;;;10.80;69.30;;;;;;5034307;28;20183;-65
2022/05/19 01:31:35;;;;;;;4.90;1.90;;;10.80;69.30;;;;;;5034394;28;20218;-66
2022/05/19 01:34:02;;;;;;;3.10;1.80;;;10.80;69.20;;;;;;5033158;28;20270;-66
2022/05/19 01:36:28;;;;;;;2.83;1.50;;;10.80;69.40;;;;;;5016212;28;20176;-66
2022/05/19 01:39:06;;;;;;;1.90;1.50;;;10.70;69.40;;;;;;4999295;28;20187;-66
2022/05/19 01:41:52;;;;;;;2.47;1.70;;;10.60;69.30;;;;;;5013892;28;20238;-66
2022/05/19 01:44:32;;;;;;;2.40;1.80;;;10.60;69.60;;;;;;5012133;28;20207;-66
2022/05/19 01:47:12;;;;;;;1.50;1.40;;;10.60;69.40;;;;;;5034867;28;20186;-66
2022/05/19 01:49:57;;;;;;;5.33;2.03;;;10.60;69.50;;;;;;5022806;28;20192;-66
2022/05/19 01:53:09;;;;;;;3.80;1.97;;;10.50;69.40;;;;;;5044555;28;20188;-66
2022/05/19 01:55:54;;;;;;;2.63;1.70;;;10.50;69.80;;;;;;5014013;28;20253;-66
2022/05/19 01:58:51;;;;;;;2.90;1.97;;;10.40;70.10;;;;;;5015780;28;20179;-66
2022/05/19 02:01:21;;;;;;;2.10;1.90;;;10.40;70.30;;;;;;5029767;28;20187;-66
2022/05/19 02:04:29;;;;;;;2.17;1.70;;;10.30;71.20;;;;;;5067480;28;20222;-66
2022/05/19 02:07:01;;;;;;;2.00;1.80;;;10.30;71.30;;;;;;4997449;28;20188;-66
2022/05/19 02:09:35;;;;;;;2.10;1.90;;;10.30;71.40;;;;;;5013661;28;20179;-66
2022/05/19 02:12:01;;;;;;;3.70;1.67;;;10.30;71.40;;;;;;5021119;28;20237;-66
2022/05/19 02:14:35;;;;;;;2.17;1.63;;;10.30;71.40;;;;;;4998221;28;20226;-66
2022/05/19 02:17:04;;;;;;;2.37;1.50;;;10.20;71.50;;;;;;5014588;28;20184;-66
2022/05/19 02:19:35;;;;;;;2.63;1.60;;;10.20;71.70;;;;;;5015356;28;20311;-66
2022/05/19 02:22:03;;;;;;;2.90;1.57;;;10.20;72.00;;;;;;5017128;28;20191;-66
2022/05/19 02:24:33;;;;;;;4.07;2.17;;;10.10;72.30;;;;;;4998027;28;20172;-65
2022/05/19 02:27:17;;;;;;;3.17;2.00;;;10.10;72.50;;;;;;5014215;28;20187;-65
2022/05/19 02:29:43;;;;;;;4.57;1.97;;;10.10;72.50;;;;;;5020053;28;20186;-65
2022/05/19 02:32:09;;;;;;;2.30;1.83;;;10.10;72.30;;;;;;5023616;28;20215;-65
2022/05/19 02:34:34;;;;;;;2.87;1.90;;;10.00;72.60;;;;;;5014676;28;20276;-65
2022/05/19 02:37:00;;;;;;;2.67;2.27;;;10.00;72.70;;;;;;4998090;28;20287;-67
2022/05/19 02:39:26;;;;;;;3.57;1.60;;;9.90;72.70;;;;;;5002515;28;20195;-66
2022/05/19 02:41:51;;;;;;;1.87;1.70;;;9.90;72.80;;;;;;5017149;28;20235;-66
2022/05/19 02:44:17;;;;;;;3.20;2.10;;;9.90;72.90;;;;;;5016222;28;20246;-65
2022/05/19 02:46:42;;;;;;;3.60;2.10;;;9.90;72.90;;;;;;5033905;28;20202;-65
2022/05/19 02:49:09;;;;;;;2.73;1.90;;;9.90;72.70;;;;;;5017101;28;20194;-65
2022/05/19 02:51:34;;;;;;;2.07;1.67;;;9.80;72.60;;;;;;5016922;28;20246;-66
2022/05/19 02:54:00;;;;;;;2.83;2.20;;;9.80;72.90;;;;;;5017361;28;20273;-65
2022/05/19 02:56:26;;;;;;;2.67;2.10;;;9.80;73.00;;;;;;5016808;28;20199;-65
2022/05/19 02:58:52;;;;;;;2.83;1.90;;;9.80;73.10;;;;;;5063542;28;20242;-66
2022/05/19 03:01:17;;;;;;;3.83;2.43;;;9.80;73.40;;;;;;5016606;28;20256;-66
2022/05/19 03:03:43;;;;;;;4.10;2.30;;;9.70;73.50;;;;;;5049445;28;20194;-65
2022/05/19 03:06:09;;;;;;;2.10;1.90;;;9.70;73.50;;;;;;5049751;28;20202;-64
2022/05/19 03:08:34;;;;;;;3.00;2.03;;;9.70;73.50;;;;;;5050027;28;20221;-64
2022/05/19 03:11:00;;;;;;;2.67;2.47;;;9.70;73.60;;;;;;5048639;28;20226;-64
2022/05/19 03:13:26;;;;;;;2.77;2.20;;;9.60;73.70;;;;;;5016083;28;20202;-64
2022/05/19 03:15:51;;;;;;;2.27;2.00;;;9.70;73.70;;;;;;5016311;28;20244;-64
2022/05/19 03:18:17;;;;;;;2.17;1.97;;;9.70;73.90;;;;;;5046781;28;20191;-64
2022/05/19 03:20:43;;;;;;;2.17;1.97;;;9.60;73.70;;;;;;5046674;28;20207;-64
2022/05/19 03:23:09;;;;;;;4.83;1.80;;;9.60;73.50;;;;;;5032246;28;20195;-65
2022/05/19 03:25:34;;;;;;;2.90;2.07;;;9.70;73.70;;;;;;5049278;28;20206;-65
2022/05/19 03:28:00;;;;;;;3.27;2.10;;;9.60;74.10;;;;;;5032922;28;20217;-64
2022/05/19 03:30:26;;;;;;;2.97;2.40;;;9.60;74.50;;;;;;5016418;28;20215;-64
2022/05/19 03:32:52;;;;;;;3.90;2.37;;;9.60;74.60;;;;;;5048905;28;20183;-64
2022/05/19 03:35:18;;;;;;;4.10;2.30;;;9.60;74.70;;;;;;5016328;28;20210;-64
2022/05/19 03:37:44;;;;;;;3.77;2.20;;;9.60;74.80;;;;;;5049558;28;20195;-64
2022/05/19 03:40:12;;;;;;;2.40;2.20;;;9.60;74.90;;;;;;5028523;28;20309;-64
2022/05/19 03:42:37;;;;;;;2.30;2.07;;;9.60;75.00;;;;;;5016337;28;20234;-64
2022/05/19 03:45:05;;;;;;;4.97;2.50;;;9.60;75.00;;;;;;5016026;28;20481;-64
2022/05/19 03:47:31;;;;;;;2.70;2.10;;;9.60;75.00;;;;;;5032947;28;20194;-64
2022/05/19 03:49:57;;;;;;;2.57;2.17;;;9.60;75.20;;;;;;5016520;28;20796;-64
2022/05/19 03:52:22;;;;;;;2.90;1.87;;;9.60;75.10;;;;;;5032110;28;20218;-64
2022/05/19 03:54:48;;;;;;;2.57;2.30;;;9.60;75.00;;;;;;5032380;28;20183;-62
2022/05/19 03:57:16;;;;;;;3.60;2.23;;;9.60;75.10;;;;;;5012870;28;20239;-62
2022/05/19 03:59:42;;;;;;;5.77;2.40;;;9.60;75.30;;;;;;4997804;28;20214;-62
2022/05/19 04:02:07;;;;;;;2.60;2.13;;;9.60;75.30;;;;;;5014424;28;20194;-62
2022/05/19 04:04:33;;;;;;;3.30;2.23;;;9.60;75.30;;;;;;5031443;28;20191;-62
2022/05/19 04:06:59;;;;;;;2.33;1.97;;;9.60;75.70;;;;;;5035644;28;20196;-62
2022/05/19 04:09:25;;;;;;;2.83;2.07;;;9.60;75.50;;;;;;5016484;28;20252;-62
2022/05/19 04:11:51;;;;;;;2.60;2.37;;;9.70;75.20;;;;;;5015025;28;20257;-62
2022/05/19 04:14:17;;;;;;;2.07;1.87;;;9.60;75.20;;;;;;5015352;28;20214;-61
2022/05/19 04:16:43;;;;;;;3.80;2.43;;;9.70;75.30;;;;;;5018741;28;20179;-61
2022/05/19 04:19:09;;;;;;;7.33;2.30;;;9.60;75.80;;;;;;5020142;28;20417;-61
2022/05/19 04:21:34;;;;;;;1.97;1.73;;;9.60;75.90;;;;;;5016013;28;20199;-62
2022/05/19 04:24:01;;;;;;;4.20;2.20;;;9.70;76.00;;;;;;5032997;28;20201;-62
2022/05/19 04:26:27;;;;;;;5.63;2.90;;;9.60;76.10;;;;;;5035701;28;20199;-61
2022/05/19 04:28:53;;;;;;;8.67;2.80;;;9.70;76.30;;;;;;5020014;28;20180;-62
2022/05/19 04:31:19;;;;;;;3.80;2.40;;;9.70;76.40;;;;;;5018062;28;20294;-62
2022/05/19 04:33:44;;;;;;;3.83;2.23;;;9.70;76.60;;;;;;5019011;28;20251;-61
2022/05/19 04:36:10;;;;;;;5.57;2.60;;;9.70;76.90;;;;;;5007295;28;20200;-61
2022/05/19 04:38:36;;;;;;;3.07;2.07;;;9.70;76.70;;;;;;5010676;28;20196;-61
2022/05/19 04:41:03;;;;;;;4.33;2.83;;;9.70;76.70;;;;;;5010459;28;20250;-62
2022/05/19 04:43:29;;;;;;;3.40;2.80;;;9.70;76.70;;;;;;5051677;28;20235;-61
2022/05/19 04:45:56;;;;;;;3.63;2.63;;;9.80;76.60;;;;;;5067106;28;20448;-61
2022/05/19 04:48:23;;;;;;;5.10;2.70;;;9.80;76.70;;;;;;5025551;28;20192;-61
2022/05/19 04:50:57;;;;;;;3.70;2.33;;;9.80;76.80;;;;;;5042403;28;20203;-61
2022/05/19 04:53:24;;;;;;;5.83;2.70;;;9.80;76.70;;;;;;5032645;28;20429;-61
2022/05/19 04:55:51;;;;;;;2.63;2.27;;;9.90;76.70;;;;;;5018048;28;20191;-61
2022/05/19 04:58:17;;;;;;;3.87;2.90;;;9.90;76.70;;;;;;5033465;28;20191;-61
2022/05/19 05:00:43;;;;;;;6.07;2.40;;;10.00;76.40;;;;;;5016748;28;20191;-62
2022/05/19 05:03:08;;;;;;;2.73;2.43;;;9.90;76.60;;;;;;5015699;28;20197;-61
2022/05/19 05:05:35;;;;;;;4.87;2.90;;;10.00;76.60;;;;;;5016240;28;20221;-61
2022/05/19 05:08:00;;;;;;;4.87;2.93;;;10.00;76.70;;;;;;5017820;28;20180;-61
2022/05/19 05:10:26;;;;;;;2.73;2.50;;;10.00;77.10;;;;;;5027727;28;20221;-61
2022/05/19 05:12:52;;;;;;;4.07;2.80;;;10.10;76.80;;;;;;5033406;28;20191;-61
2022/05/19 05:15:18;;;;;;;2.93;2.40;;;10.10;77.00;;;;;;5032384;28;20191;-61
2022/05/19 05:17:45;;;;;;;4.63;2.70;;;10.10;77.10;;;;;;5033313;28;20182;-61
2022/05/19 05:20:14;;;;;;;3.97;2.67;;;10.20;77.30;;;;;;5015891;28;20187;-61
2022/05/19 05:22:40;;;;;;;3.73;2.50;;;10.20;77.00;;;;;;5032346;28;20179;-61
2022/05/19 05:25:11;;;;;;;2.87;2.67;;;10.30;76.90;;;;;;5017567;28;20183;-61
2022/05/19 05:27:37;;;;;;;3.00;2.70;;;10.30;77.10;;;;;;5032744;28;20233;-61
2022/05/19 05:30:04;;;;;;;3.30;2.70;;;10.30;77.00;;;;;;5015764;28;20191;-61
2022/05/19 05:32:30;;;;;;;4.30;2.40;;;10.30;76.20;;;;;;5016690;28;20206;-61
2022/05/19 05:34:56;;;;;;;6.67;2.80;;;10.40;76.10;;;;;;5033290;28;20222;-62
2022/05/19 05:37:22;;;;;;;4.13;2.77;;;10.40;76.10;;;;;;5017543;28;20218;-61
2022/05/19 05:39:48;;;;;;;3.83;2.37;;;10.50;76.00;;;;;;5012746;28;20187;-62
2022/05/19 05:42:14;;;;;;;4.30;2.70;;;10.60;76.10;;;;;;5047950;28;20226;-62
2022/05/19 05:44:40;;;;;;;6.57;2.70;;;10.60;75.90;;;;;;5033228;28;20183;-62
2022/05/19 05:47:06;;;;;;;3.17;2.47;;;10.70;75.80;;;;;;5016726;28;20191;-61
2022/05/19 05:49:31;;;;;;;5.27;2.93;;;10.70;75.90;;;;;;5029360;28;20183;-61
2022/05/19 05:51:57;;;;;;;3.83;2.33;;;10.80;76.00;;;;;;5029569;28;20457;-62
2022/05/19 05:54:23;;;;;;;3.87;2.30;;;10.80;75.70;;;;;;5029690;28;20188;-62
2022/05/19 05:56:49;;;;;;;3.17;2.63;;;10.80;75.50;;;;;;5030330;28;20226;-61
2022/05/19 05:59:14;;;;;;;2.63;2.00;;;10.90;74.60;;;;;;5047453;28;20198;-61
2022/05/19 06:01:40;;;;;;;5.33;2.93;;;11.00;74.80;;;;;;5010340;28;20248;-61
2022/05/19 06:04:06;;;;;;;4.63;2.27;;;11.00;74.60;;;;;;5016128;28;20191;-61
2022/05/19 06:06:31;;;;;;;2.60;2.33;;;11.10;74.40;;;;;;5014962;28;20222;-61
2022/05/19 06:08:57;;;;;;;3.20;2.20;;;11.20;74.50;;;;;;5017125;28;20198;-61
2022/05/19 06:11:23;;;;;;;3.67;2.53;;;11.30;74.20;;;;;;5016963;28;20211;-61
2022/05/19 06:13:52;;;;;;;5.17;2.40;;;11.30;73.80;;;;;;5016758;28;20179;-61
2022/05/19 06:16:18;;;;;;;5.73;2.43;;;11.40;73.30;;;;;;5016956;28;20397;-61
2022/05/19 06:18:43;;;;;;;6.63;2.87;;;11.50;73.20;;;;;;5016567;28;20175;-61
2022/05/19 06:21:09;;;;;;;2.97;2.47;;;11.60;73.10;;;;;;5016970;28;20218;-61
2022/05/19 06:23:35;;;;;;;3.53;2.60;;;11.70;73.10;;;;;;5032986;28;20182;-61
2022/05/19 06:26:02;;;;;;;2.67;2.10;;;11.80;72.80;;;;;;5032827;28;20191;-61
2022/05/19 06:28:28;;;;;;;2.77;2.10;;;11.80;72.80;;;;;;5016736;28;20194;-61
2022/05/19 06:30:55;;;;;;;3.70;2.37;;;11.80;72.90;;;;;;5015677;28;20210;-61
2022/05/19 06:33:22;;;;;;;4.40;2.20;;;12.00;71.90;;;;;;5064989;28;20248;-61
2022/05/19 06:35:48;;;;;;;2.63;2.30;;;12.00;71.00;;;;;;5016805;28;20180;-61
2022/05/19 06:38:14;;;;;;;5.27;2.60;;;12.10;70.40;;;;;;5031388;28;20183;-61
2022/05/19 06:40:41;;;;;;;3.63;2.60;;;12.20;69.10;;;;;;5015399;28;20266;-60
2022/05/19 06:43:09;;;;;;;2.83;2.53;;;12.30;69.00;;;;;;5015556;28;20190;-60
2022/05/19 06:45:35;;;;;;;2.47;2.07;;;12.30;68.20;;;;;;5031597;28;20176;-60
2022/05/19 06:48:01;;;;;;;2.83;2.23;;;12.50;68.60;;;;;;5029442;28;20202;-60
2022/05/19 06:50:26;;;;;;;3.07;2.00;;;12.60;68.60;;;;;;5028661;28;20219;-60
2022/05/19 06:52:55;;;;;;;4.80;2.30;;;12.60;67.80;;;;;;5029016;28;20314;-60
2022/05/19 06:55:23;;;;;;;2.63;2.30;;;12.70;67.20;;;;;;5032147;28;20187;-61
2022/05/19 06:57:48;;;;;;;3.03;2.33;;;12.80;66.50;;;;;;5014981;28;20191;-61
2022/05/19 07:00:17;;;;;;;2.73;2.23;;;12.90;66.50;;;;;;5011181;28;20199;-61
2022/05/19 07:02:46;;;;;;;4.23;2.40;;;13.00;67.10;;;;;;5024639;28;20179;-61
2022/05/19 07:05:12;;;;;;;3.37;1.97;;;13.00;67.70;;;;;;5032649;28;20179;-61
2022/05/19 07:07:38;;;;;;;3.63;2.17;;;13.10;67.50;;;;;;5065574;28;20182;-61
2022/05/19 07:10:05;;;;;;;3.03;2.13;;;13.30;67.20;;;;;;5048774;28;20187;-60
2022/05/19 07:12:33;;;;;;;3.67;2.10;;;13.30;67.10;;;;;;5065439;28;20215;-60
2022/05/19 07:15:00;;;;;;;3.30;2.00;;;13.40;67.40;;;;;;5048068;28;20248;-60
2022/05/19 07:17:26;;;;;;;3.33;2.10;;;13.50;66.40;;;;;;5044976;28;20195;-60
2022/05/19 07:22:35;;;;;;;3.60;2.20;;;13.70;65.90;;;;;;5014492;28;20333;-60
2022/05/19 07:25:06;;;;;;;3.97;2.33;;;13.80;65.90;;;;;;5013248;28;20283;-60
2022/05/19 07:27:32;;;;;;;3.60;2.40;;;13.90;66.10;;;;;;5030128;28;20199;-60
2022/05/19 07:29:59;;;;;;;4.20;2.30;;;14.00;66.40;;;;;;5014551;28;20240;-60
2022/05/19 07:32:25;;;;;;;2.67;2.00;;;14.00;67.00;;;;;;5012820;28;20207;-60
2022/05/19 07:34:52;;;;;;;2.80;2.00;;;14.10;66.50;;;;;;5013867;28;20197;-60
2022/05/19 07:37:17;;;;;;;3.03;2.13;;;14.20;66.10;;;;;;5013874;28;20206;-60
2022/05/19 07:39:43;;;;;;;2.53;2.20;;;14.20;66.10;;;;;;5014601;28;20186;-60
2022/05/19 07:42:09;;;;;;;4.80;2.53;;;14.30;61.90;;;;;;5013880;28;20293;-59
2022/05/19 07:44:35;;;;;;;4.07;2.00;;;14.60;60.60;;;;;;5014080;28;20191;-60
2022/05/19 07:47:00;;;;;;;4.83;2.50;;;14.60;63.00;;;;;;5013799;28;20183;-60
2022/05/19 07:49:26;;;;;;;5.17;2.20;;;14.80;61.40;;;;;;5015801;28;20183;-59
2022/05/19 07:51:52;;;;;;;5.53;3.27;;;14.80;62.70;;;;;;5018320;28;20211;-59
2022/05/19 07:54:22;;;;;;;3.37;2.37;;;14.90;57.80;;;;;;5036126;28;20221;-59
2022/05/19 07:56:49;;;;;;;2.53;2.30;;;15.00;59.10;;;;;;5022462;28;20215;-60
2022/05/19 07:59:15;;;;;;;2.40;2.13;;;15.20;57.50;;;;;;5040360;28;20198;-60
2022/05/19 08:01:42;;;;;;;3.50;2.73;;;15.20;57.50;;;;;;5033931;28;20198;-60
2022/05/19 08:04:09;;;;;;;3.37;2.73;;;15.40;57.00;;;;;;5034456;28;20191;-60
2022/05/19 08:06:36;;;;;;;2.50;2.30;;;15.50;58.20;;;;;;5026261;28;20187;-60
2022/05/19 08:10:20;;;;;;;3.87;2.63;;;15.60;59.10;;;;;;5014935;28;20192;-60
2022/05/19 08:11:50;;;;;;;2.50;2.30;;;15.70;58.60;;;;;;5025055;28;20217;-60
2022/05/19 08:17:01;;;;;;;2.97;2.27;;;15.80;56.70;;;;;;5034916;28;20230;-60
2022/05/19 08:19:27;;;;;;;4.00;2.47;;;15.80;56.90;;;;;;5035106;28;20194;-59
2022/05/19 08:21:52;;;;;;;2.77;2.20;;;16.00;56.10;;;;;;5019048;28;20202;-60
2022/05/19 08:24:18;;;;;;;3.93;2.03;;;16.10;56.10;;;;;;5017144;28;20187;-60
2022/05/19 08:26:44;;;;;;;5.10;2.50;;;16.10;55.40;;;;;;5019109;28;20270;-60
2022/05/19 08:29:09;;;;;;;4.10;2.50;;;16.30;54.80;;;;;;5019085;28;20282;-60
2022/05/19 08:31:35;;;;;;;4.07;2.70;;;16.30;54.80;;;;;;5013115;28;20211;-60
2022/05/19 08:34:03;;;;;;;4.50;2.60;;;16.40;54.80;;;;;;5014390;28;20231;-60
2022/05/19 08:36:29;;;;;;;3.37;2.50;;;16.50;53.50;;;;;;5039315;28;20218;-60
2022/05/19 08:38:56;;;;;;;4.33;2.17;;;16.70;52.30;;;;;;5033862;28;20171;-60
2022/05/19 08:41:56;;;;;;;2.37;2.13;;;16.70;53.10;;;;;;5028421;28;20245;-60
2022/05/19 08:44:29;;;;;;;4.23;2.43;;;16.80;52.90;;;;;;5048217;28;20200;-60
2022/05/19 08:46:57;;;;;;;3.33;2.40;;;16.80;52.00;;;;;;5014645;28;20195;-60
2022/05/19 08:49:45;;;;;;;2.90;2.00;;;17.20;49.90;;;;;;5015131;28;20275;-60
2022/05/19 08:52:17;;;;;;;2.30;1.97;;;17.30;49.50;;;;;;5024754;28;20210;-60
2022/05/19 08:54:45;;;;;;;3.20;2.37;;;17.40;49.70;;;;;;5034379;28;20175;-60
2022/05/19 08:57:25;;;;;;;4.13;2.27;;;17.40;50.80;;;;;;5033842;28;20190;-60
2022/05/19 08:59:56;;;;;;;4.07;1.90;;;17.50;50.20;;;;;;5034607;28;20224;-60
2022/05/19 09:02:32;;;;;;;3.23;2.20;;;17.60;47.20;;;;;;5032723;28;20191;-60
2022/05/19 09:05:28;;;;;;;3.33;2.10;;;17.80;45.80;;;;;;5034480;28;20286;-60
2022/05/19 09:08:14;;;;;;;2.70;2.03;;;17.80;45.80;;;;;;5016525;28;20222;-60
2022/05/19 09:11:14;;;;;;;4.50;2.20;;;18.00;46.50;;;;;;5013978;28;20214;-60
2022/05/19 09:13:40;;;;;;;2.03;1.83;;;18.10;46.40;;;;;;5020304;28;20263;-60
2022/05/19 09:16:17;;;;;;;5.00;2.70;;;18.10;49.50;;;;;;5032392;28;20253;-60
2022/05/19 09:19:04;;;;;;;4.27;2.30;;;18.20;47.30;;;;;;5032793;28;20191;-60
2022/05/19 09:21:30;;;;;;;4.43;2.20;;;18.20;50.50;;;;;;5067191;28;20183;-60
2022/05/19 09:23:56;;;;;;;2.93;2.13;;;18.20;50.80;;;;;;5032656;28;20215;-60
2022/05/19 09:26:42;;;;;;;4.80;2.30;;;18.30;50.60;;;;;;5020839;28;20231;-60
2022/05/19 09:29:13;;;;;;;3.93;2.57;;;18.40;51.60;;;;;;5013624;28;20188;-60
2022/05/19 09:31:42;;;;;;;3.20;2.13;;;18.50;51.20;;;;;;5012370;28;20314;-60
2022/05/19 09:34:09;;;;;;;5.37;2.83;;;18.70;50.10;;;;;;5028646;28;20180;-60
2022/05/19 09:36:48;;;;;;;2.53;1.90;;;18.70;47.40;;;;;;5028868;28;20192;-60
2022/05/19 09:39:17;;;;;;;4.03;2.33;;;18.80;47.00;;;;;;5030164;28;20185;-60
2022/05/19 09:41:51;;;;;;;2.37;2.10;;;18.90;47.60;;;;;;5031585;28;20231;-60
2022/05/19 09:44:27;;;;;;;5.27;2.37;;;19.00;49.80;;;;;;5033382;28;20258;-60
2022/05/19 09:46:53;;;;;;;2.67;2.03;;;19.10;47.90;;;;;;5032691;28;20175;-60
2022/05/19 09:49:33;;;;;;;2.23;2.03;;;19.10;48.00;;;;;;5023276;28;20250;-60
2022/05/19 09:52:02;;;;;;;3.97;2.43;;;19.20;50.00;;;;;;5046745;28;20274;-59
2022/05/19 09:54:33;;;;;;;2.83;2.20;;;19.30;50.10;;;;;;5045853;28;20184;-60
2022/05/19 09:57:42;;;;;;;7.57;2.17;;;19.30;48.10;;;;;;5063328;28;20195;-60
2022/05/19 10:00:35;;;;;;;2.70;2.43;;;19.30;50.90;;;;;;5032197;28;20194;-60
2022/05/19 10:03:03;;;;;;;3.20;2.20;;;19.50;44.60;;;;;;5017380;28;20279;-60
2022/05/19 10:05:48;;;;;;;6.43;2.47;;;19.60;46.90;;;;;;5013226;28;20237;-60
2022/05/19 10:08:50;;;;;;;2.80;2.60;;;19.70;47.00;;;;;;5013383;28;20168;-60
2022/05/19 10:11:19;;;;;;;2.83;2.20;;;19.80;44.90;;;;;;5010692;28;20230;-59
2022/05/19 10:13:56;;;;;;;3.27;2.13;;;19.80;47.50;;;;;;5032156;28;20179;-60
2022/05/19 10:16:40;;;;;;;3.57;2.60;;;19.80;47.00;;;;;;5023388;28;20278;-59
2022/05/19 10:19:17;;;;;;;4.13;3.00;;;19.80;48.20;;;;;;5012264;28;20270;-59
2022/05/19 10:22:04;;;;;;;2.97;2.30;;;19.90;48.20;;;;;;5012147;28;20203;-60
2022/05/19 10:24:39;;;;;;;3.23;2.50;;;19.90;49.10;;;;;;5013621;28;20259;-60
2022/05/19 10:31:05;;;;;;;2.97;2.10;;;20.20;44.90;;;;;;5013419;28;20182;-60
2022/05/19 10:33:51;;;;;;;5.23;2.03;;;20.30;45.90;;;;;;4960630;28;20199;-60
2022/05/19 10:36:49;;;;;;;2.47;1.97;;;20.30;45.30;;;;;;5032204;28;20218;-60
2022/05/19 10:39:29;;;;;;;4.37;2.40;;;20.50;46.40;;;;;;5032672;28;20187;-60
2022/05/19 10:42:03;;;;;;;4.53;2.27;;;20.60;44.90;;;;;;5032189;28;20222;-60
2022/05/19 10:44:48;;;;;;;3.87;2.27;;;20.70;45.90;;;;;;5032493;28;20178;-60
2022/05/19 10:47:32;;;;;;;4.53;2.17;;;20.80;48.50;;;;;;5032631;28;20187;-60
2022/05/19 10:50:24;;;;;;;2.63;1.90;;;20.80;43.10;;;;;;5025739;28;20226;-60
2022/05/19 10:53:10;;;;;;;4.60;2.23;;;20.90;43.30;;;;;;5032068;28;20191;-60
2022/05/19 10:56:01;;;;;;;2.17;1.97;;;20.90;43.40;;;;;;5022467;28;20195;-60
2022/05/19 10:58:51;;;;;;;3.87;2.43;;;21.10;43.60;;;;;;5011903;28;20187;-60
2022/05/19 11:01:36;;;;;;;3.27;2.20;;;21.20;44.00;;;;;;5017372;28;20270;-60
2022/05/19 11:04:20;;;;;;;3.53;2.20;;;21.30;40.50;;;;;;5025804;28;20281;-60
2022/05/19 11:07:10;;;;;;;3.00;2.20;;;21.40;43.60;;;;;;5029817;28;20182;-60
2022/05/19 11:09:36;;;;;;;3.27;2.47;;;21.50;43.20;;;;;;5031757;28;20172;-62
2022/05/19 11:12:33;;;;;;;3.57;2.40;;;21.70;46.90;;;;;;5026405;28;20229;-62
2022/05/19 11:15:05;;;;;;;2.80;2.50;;;21.80;42.90;;;;;;4979426;28;20248;-62
2022/05/19 11:17:46;;;;;;;2.20;1.97;;;21.90;42.90;;;;;;5031062;28;20191;-61
2022/05/19 11:20:25;;;;;;;2.67;2.30;;;22.00;45.30;;;;;;5031385;28;20190;-61
2022/05/19 11:22:59;;;;;;;3.20;2.27;;;22.10;46.40;;;;;;5032856;28;20182;-61
2022/05/19 11:28:46;;;;;;;2.37;2.03;;;22.30;45.70;;;;;;5032188;28;20240;-62
2022/05/19 11:31:24;;;;;;;3.70;2.80;;;22.60;46.30;;;;;;5010466;28;20219;-61
2022/05/19 11:33:52;;;;;;;2.47;2.20;;;22.80;44.50;;;;;;5009816;28;20183;-61
2022/05/19 11:36:49;;;;;;;3.37;2.33;;;22.90;43.70;;;;;;5020397;28;20187;-62
2022/05/19 11:39:22;;;;;;;2.57;2.30;;;23.10;44.50;;;;;;5010583;28;20199;-62
2022/05/19 11:41:51;;;;;;;5.03;2.40;;;23.30;43.30;;;;;;5022773;28;20233;-63
2022/05/19 11:44:23;;;;;;;5.33;2.20;;;23.50;44.40;;;;;;5021388;28;20186;-62
2022/05/19 11:47:03;;;;;;;2.20;2.00;;;23.70;39.70;;;;;;5030459;28;20301;-62
2022/05/19 11:55:48;;;;;;;2.47;1.90;;;24.60;40.20;;;;;;5012155;28;20549;-62
2022/05/19 11:58:24;;;;;;;2.67;1.97;;;25.00;37.90;;;;;;5027407;28;20183;-61
2022/05/19 12:00:52;;;;;;;3.60;2.40;;;25.40;36.80;;;;;;5011815;28;20160;-61
2022/05/19 12:03:42;;;;;;;2.07;1.87;;;26.00;35.30;;;;;;5031724;28;20203;-62
2022/05/19 12:06:12;;;;;;;3.63;2.00;;;26.70;36.20;;;;;;5030597;28;20219;-59
2022/05/19 12:09:05;;;;;;;5.60;1.77;;;27.30;31.40;;;;;;5015066;28;20246;-59
2022/05/19 12:11:47;;;;;;;2.10;1.90;;;28.00;33.50;;;;;;5013869;28;20237;-59
2022/05/19 12:14:25;;;;;;;4.23;1.80;;;28.70;33.80;;;;;;5013707;28;20164;-60
2022/05/19 12:17:06;;;;;;;2.23;2.00;;;29.20;31.80;;;;;;5028040;28;20175;-60
2022/05/19 12:19:43;;;;;;;2.23;1.53;;;29.60;28.50;;;;;;5030081;28;20184;-60
2022/05/19 12:22:24;;;;;;;3.87;2.03;;;30.20;29.30;;;;;;5029673;28;20202;-60
2022/05/19 12:25:07;;;;;;;3.83;1.90;;;30.80;28.70;;;;;;5031104;28;20240;-60
2022/05/19 12:27:36;;;;;;;4.10;1.77;;;31.10;27.50;;;;;;5031222;28;20182;-60
2022/05/19 12:33:21;;;;;;;3.90;1.83;;;32.00;26.90;;;;;;5023327;28;20198;-60
2022/05/19 12:36:11;;;;;;;4.83;2.03;;;32.50;27.40;;;;;;5022319;28;20195;-59
2022/05/19 12:38:43;;;;;;;4.30;1.90;;;33.00;25.60;;;;;;4997300;28;20458;-60
2022/05/19 12:41:29;;;;;;;2.80;1.80;;;33.40;25.80;;;;;;5032655;28;20235;-62
2022/05/19 12:43:56;;;;;;;1.80;1.70;;;33.70;25.70;;;;;;5034872;28;20186;-60
2022/05/19 12:46:35;;;;;;;4.13;2.00;;;34.10;24.60;;;;;;5041213;28;20219;-59
2022/05/19 12:49:21;;;;;;;3.37;1.97;;;34.60;23.80;;;;;;5014583;28;20188;-60
2022/05/19 12:51:52;;;;;;;2.80;1.70;;;34.90;24.50;;;;;;5026382;28;20288;-59
2022/05/19 12:54:19;;;;;;;4.97;2.03;;;35.00;24.30;;;;;;5032286;28;20187;-59
2022/05/19 12:56:46;;;;;;;3.37;2.03;;;35.20;22.40;;;;;;5016111;28;20203;-59
2022/05/19 12:59:36;;;;;;;5.40;2.00;;;35.40;21.90;;;;;;5031996;28;20186;-59
2022/05/19 13:02:07;;;;;;;2.63;1.60;;;35.40;22.60;;;;;;5033422;28;20221;-59
2022/05/19 13:04:41;;;;;;;2.47;1.80;;;35.70;22.50;;;;;;5033512;28;20206;-61
2022/05/19 13:07:38;;;;;;;2.63;1.57;;;35.70;22.20;;;;;;5033980;28;20183;-61
2022/05/19 13:10:10;;;;;;;4.23;2.00;;;35.60;24.80;;;;;;5032045;28;20202;-60
2022/05/19 13:12:55;;;;;;;2.90;2.00;;;35.50;25.00;;;;;;5032737;28;20242;-60
2022/05/19 13:15:30;;;;;;;4.10;1.63;;;35.30;21.90;;;;;;5031189;28;20194;-60
2022/05/19 13:17:59;;;;;;;4.37;2.17;;;35.20;24.50;;;;;;5027234;28;20193;-60
2022/05/19 13:20:34;;;;;;;3.40;1.70;;;35.20;24.80;;;;;;5019444;28;20329;-59
2022/05/19 13:23:04;;;;;;;2.03;1.67;;;34.80;24.20;;;;;;5026777;28;20194;-60
2022/05/19 13:25:32;;;;;;;2.83;1.80;;;34.90;24.00;;;;;;5016426;28;20207;-59
2022/05/19 13:31:05;;;;;;;3.47;1.93;;;34.50;25.00;;;;;;5029151;28;20261;-59
2022/05/19 13:33:37;;;;;;;5.33;2.03;;;34.30;25.00;;;;;;5017407;28;20194;-59
2022/05/19 13:36:07;;;;;;;3.87;1.73;;;34.20;22.60;;;;;;5032242;28;20270;-59